Time;durP1;ratioP1;P1;durP2;ratioP2;P2;SDS_P1;SDS_P2;PMS_P1;PMS_P2;Temp;Humidity;BMP_temperature;BMP_pressure;BME280_temperature;BME280_humidity;BME280_pressure;Samples;Min_cycle;Max_cycle;Signal;HPM_P1;HPM_P2
2023/09/28 00:00:35;;;;;;;3.38;3.08;;;18.00;99.90;;;;;;5065705;28;20222;-74
2023/09/28 00:02:43;;;;;;;3.97;3.45;;;18.00;99.90;;;;;;5064001;28;20294;-79
2023/09/28 00:05:12;;;;;;;3.28;3.08;;;18.00;99.90;;;;;;5070129;28;20727;-78
2023/09/28 00:07:38;;;;;;;3.30;3.00;;;18.00;99.90;;;;;;5072185;28;20194;-77
2023/09/28 00:10:07;;;;;;;3.40;3.10;;;17.90;99.90;;;;;;5070798;28;20209;-77
2023/09/28 00:12:33;;;;;;;3.00;2.80;;;17.90;99.90;;;;;;5066814;28;20502;-76
2023/09/28 00:15:02;;;;;;;3.55;3.10;;;17.80;99.90;;;;;;5069624;28;20656;-77
2023/09/28 00:17:28;;;;;;;4.45;3.10;;;17.80;99.90;;;;;;5062330;28;20279;-75
2023/09/28 00:19:56;;;;;;;4.30;3.15;;;17.80;99.90;;;;;;5066540;28;20206;-77
2023/09/28 00:22:21;;;;;;;3.40;3.10;;;17.80;99.90;;;;;;5066044;28;20234;-76
2023/09/28 00:24:48;;;;;;;5.00;3.45;;;17.80;99.90;;;;;;5068033;28;20248;-77
2023/09/28 00:27:14;;;;;;;3.35;3.15;;;17.70;99.90;;;;;;5069441;28;20202;-76
2023/09/28 00:29:41;;;;;;;3.17;2.97;;;17.70;99.90;;;;;;5066278;28;20268;-77
2023/09/28 00:32:08;;;;;;;3.50;3.20;;;17.70;99.90;;;;;;5065068;28;20237;-75
2023/09/28 00:34:35;;;;;;;3.67;3.15;;;17.60;99.90;;;;;;5060161;28;20264;-77
2023/09/28 00:37:01;;;;;;;2.83;2.63;;;17.60;99.90;;;;;;5063036;28;20857;-76
2023/09/28 00:39:28;;;;;;;3.50;3.20;;;17.50;99.90;;;;;;5067356;28;20222;-74
2023/09/28 00:41:54;;;;;;;3.08;2.88;;;17.50;99.90;;;;;;5064542;28;20252;-75
2023/09/28 00:44:21;;;;;;;3.33;3.10;;;17.50;99.90;;;;;;5060962;28;20241;-76
2023/09/28 00:46:48;;;;;;;3.47;3.17;;;17.50;99.90;;;;;;5064204;28;20202;-76
2023/09/28 00:49:17;;;;;;;3.75;3.35;;;17.50;99.90;;;;;;5064573;28;20202;-75
2023/09/28 00:51:44;;;;;;;3.67;3.30;;;17.50;99.90;;;;;;5066395;28;20287;-78
2023/09/28 00:54:13;;;;;;;3.78;3.47;;;17.50;99.90;;;;;;5062107;28;20637;-75
2023/09/28 00:56:40;;;;;;;5.32;3.67;;;17.50;99.90;;;;;;5060642;28;20211;-77
2023/09/28 00:59:07;;;;;;;3.25;3.05;;;17.40;99.90;;;;;;5063407;28;20255;-74
2023/09/28 01:01:33;;;;;;;4.80;3.40;;;17.40;99.90;;;;;;5066073;28;20205;-77
2023/09/28 01:04:05;;;;;;;3.60;3.30;;;17.40;99.90;;;;;;5062986;28;20268;-75
2023/09/28 01:06:35;;;;;;;3.55;3.25;;;17.50;99.90;;;;;;5064638;28;20230;-75
2023/09/28 01:09:06;;;;;;;3.97;3.65;;;17.50;99.90;;;;;;5064617;28;20202;-75
2023/09/28 01:11:32;;;;;;;3.70;3.40;;;17.40;99.90;;;;;;5060989;28;20222;-77
2023/09/28 01:14:01;;;;;;;3.88;3.47;;;17.40;99.90;;;;;;5064088;28;20244;-76
2023/09/28 01:16:27;;;;;;;4.53;3.13;;;17.30;99.90;;;;;;5064946;28;20217;-73
2023/09/28 01:18:54;;;;;;;3.78;3.45;;;17.30;99.90;;;;;;5063708;28;20553;-75
2023/09/28 01:21:20;;;;;;;3.53;3.10;;;17.30;99.90;;;;;;5062744;28;20225;-78
2023/09/28 01:23:49;;;;;;;3.85;3.53;;;17.20;99.90;;;;;;5062549;28;20242;-77
2023/09/28 01:26:15;;;;;;;3.38;3.17;;;17.20;99.90;;;;;;5060097;28;20962;-78
2023/09/28 01:28:41;;;;;;;3.83;3.53;;;17.20;99.90;;;;;;5065530;28;20222;-76
2023/09/28 01:31:07;;;;;;;3.55;3.28;;;17.20;99.90;;;;;;5064710;28;20253;-75
2023/09/28 01:33:34;;;;;;;4.07;3.33;;;17.20;99.90;;;;;;5060953;28;20246;-75
2023/09/28 01:36:00;;;;;;;3.75;3.45;;;17.20;99.90;;;;;;5065741;28;20279;-75
2023/09/28 01:38:34;;;;;;;4.93;3.30;;;17.10;99.90;;;;;;5063011;28;20194;-77
2023/09/28 01:41:02;;;;;;;3.28;3.08;;;17.10;99.90;;;;;;5062369;28;20976;-75
2023/09/28 01:43:29;;;;;;;4.95;3.35;;;17.10;99.90;;;;;;5063496;28;20218;-76
2023/09/28 01:45:55;;;;;;;4.28;3.65;;;17.10;99.90;;;;;;5065633;28;20233;-76
2023/09/28 01:48:22;;;;;;;3.88;3.58;;;17.00;99.90;;;;;;5063068;28;20202;-75
2023/09/28 01:50:48;;;;;;;3.97;3.60;;;17.00;99.90;;;;;;5064137;28;21853;-75
2023/09/28 01:53:15;;;;;;;3.85;3.47;;;17.00;99.90;;;;;;5078004;28;20206;-78
2023/09/28 01:55:41;;;;;;;4.25;3.85;;;16.90;99.90;;;;;;5082449;28;20202;-75
2023/09/28 01:58:09;;;;;;;3.80;3.50;;;16.90;99.90;;;;;;5065679;28;20217;-75
2023/09/28 02:00:35;;;;;;;4.45;4.10;;;16.90;99.90;;;;;;5064176;28;20238;-75
2023/09/28 02:03:04;;;;;;;3.70;3.40;;;16.80;99.90;;;;;;5061858;28;20280;-75
2023/09/28 02:05:33;;;;;;;3.78;3.25;;;16.80;99.90;;;;;;5063179;28;20224;-78
2023/09/28 02:07:59;;;;;;;3.72;3.42;;;16.80;99.90;;;;;;5064525;28;20194;-74
2023/09/28 02:10:26;;;;;;;3.72;3.42;;;16.80;99.90;;;;;;5066474;28;20205;-75
2023/09/28 02:12:53;;;;;;;3.83;3.50;;;16.80;99.90;;;;;;5065056;28;20238;-75
2023/09/28 02:15:22;;;;;;;3.60;3.30;;;16.80;99.90;;;;;;5063814;28;20245;-75
2023/09/28 02:17:50;;;;;;;3.97;3.22;;;16.80;99.90;;;;;;5062422;28;20889;-75
2023/09/28 02:20:20;;;;;;;3.47;3.17;;;16.80;99.90;;;;;;5066311;28;20872;-76
2023/09/28 02:22:47;;;;;;;4.07;3.30;;;16.80;99.90;;;;;;5062855;28;20708;-74
2023/09/28 02:25:15;;;;;;;4.00;3.60;;;16.80;99.90;;;;;;5066580;28;20224;-77
2023/09/28 02:27:42;;;;;;;3.92;3.63;;;16.80;99.90;;;;;;5075480;28;20207;-78
2023/09/28 02:30:10;;;;;;;4.07;3.70;;;16.80;99.90;;;;;;5086948;28;20175;-78
2023/09/28 02:32:39;;;;;;;3.78;3.47;;;16.80;99.90;;;;;;5087192;28;20186;-78
2023/09/28 02:35:06;;;;;;;4.63;3.45;;;16.80;99.90;;;;;;5076352;28;20219;-77
2023/09/28 02:37:34;;;;;;;3.40;3.13;;;16.80;99.90;;;;;;5067049;28;20218;-74
2023/09/28 02:40:00;;;;;;;4.10;3.80;;;16.80;99.90;;;;;;5062148;28;20234;-77
2023/09/28 02:42:27;;;;;;;3.97;3.58;;;16.80;99.90;;;;;;5065966;28;20248;-76
2023/09/28 02:44:53;;;;;;;4.13;3.55;;;16.80;99.90;;;;;;5065875;28;20252;-76
2023/09/28 02:47:20;;;;;;;3.95;3.65;;;16.70;99.90;;;;;;5064162;28;20222;-77
2023/09/28 02:49:48;;;;;;;3.70;3.40;;;16.70;99.90;;;;;;5064831;28;20199;-75
2023/09/28 02:52:16;;;;;;;5.50;3.70;;;16.70;99.90;;;;;;5065356;28;20205;-76
2023/09/28 02:54:42;;;;;;;3.88;3.58;;;16.70;99.90;;;;;;5065069;28;20222;-75
2023/09/28 02:57:09;;;;;;;3.53;3.22;;;16.80;99.90;;;;;;5063367;28;20222;-75
2023/09/28 02:59:36;;;;;;;3.72;3.47;;;16.70;99.90;;;;;;5063254;28;20226;-78
2023/09/28 03:02:05;;;;;;;4.45;4.05;;;16.70;99.90;;;;;;5065729;28;20198;-79
2023/09/28 03:04:31;;;;;;;5.10;3.83;;;16.70;99.90;;;;;;5060587;28;20250;-78
2023/09/28 03:07:00;;;;;;;4.05;3.75;;;16.70;99.90;;;;;;5065710;28;20244;-76
2023/09/28 03:09:26;;;;;;;4.30;3.90;;;16.60;99.90;;;;;;5063846;28;20224;-77
2023/09/28 03:11:53;;;;;;;4.13;3.83;;;16.60;99.90;;;;;;5060926;28;20369;-75
2023/09/28 03:14:19;;;;;;;3.75;3.55;;;16.60;99.90;;;;;;5064405;28;20218;-79
2023/09/28 03:16:46;;;;;;;3.70;3.40;;;16.50;99.90;;;;;;5061805;28;21676;-76
2023/09/28 03:19:12;;;;;;;4.40;3.10;;;16.50;99.90;;;;;;5065336;28;20264;-77
2023/09/28 03:21:39;;;;;;;3.53;3.22;;;16.50;99.90;;;;;;5063585;28;20218;-76
2023/09/28 03:24:08;;;;;;;3.90;3.60;;;16.60;99.90;;;;;;5064370;28;20222;-76
2023/09/28 03:26:35;;;;;;;4.18;3.55;;;16.60;99.90;;;;;;5063169;28;20439;-77
2023/09/28 03:29:01;;;;;;;3.80;3.50;;;16.60;99.90;;;;;;5064385;28;20755;-76
2023/09/28 03:31:28;;;;;;;4.63;3.65;;;16.60;99.90;;;;;;5059736;28;20295;-76
2023/09/28 03:33:55;;;;;;;3.72;3.38;;;16.60;99.90;;;;;;5058896;28;20222;-77
2023/09/28 03:36:22;;;;;;;4.03;3.60;;;16.60;99.90;;;;;;5060113;28;20681;-76
2023/09/28 03:38:50;;;;;;;3.40;3.10;;;16.60;99.90;;;;;;5063497;28;20829;-76
2023/09/28 03:41:18;;;;;;;3.85;3.55;;;16.60;99.90;;;;;;5062824;28;20262;-77
2023/09/28 03:43:46;;;;;;;4.00;3.60;;;16.50;99.90;;;;;;5063481;28;20283;-75
2023/09/28 03:46:13;;;;;;;4.00;3.70;;;16.50;99.90;;;;;;5062181;28;20885;-75
2023/09/28 03:48:41;;;;;;;3.90;3.60;;;16.50;99.90;;;;;;5064831;28;20202;-78
2023/09/28 03:51:08;;;;;;;4.15;3.75;;;16.40;99.90;;;;;;5063305;28;20871;-75
2023/09/28 03:53:40;;;;;;;3.85;3.47;;;16.40;99.90;;;;;;5068373;28;20250;-75
2023/09/28 03:56:07;;;;;;;3.60;3.30;;;16.30;99.90;;;;;;5087844;28;20182;-79
2023/09/28 03:58:36;;;;;;;4.10;3.70;;;16.30;99.90;;;;;;5068729;28;20245;-77
2023/09/28 04:01:07;;;;;;;3.25;3.03;;;16.20;99.90;;;;;;5064009;28;20225;-75
2023/09/28 04:03:34;;;;;;;5.15;3.53;;;16.20;99.90;;;;;;5064665;28;20502;-75
2023/09/28 04:06:01;;;;;;;4.53;4.13;;;16.20;99.90;;;;;;5066332;28;20746;-76
2023/09/28 04:08:28;;;;;;;4.20;3.80;;;16.10;99.90;;;;;;5068771;28;20279;-75
2023/09/28 04:10:56;;;;;;;4.07;3.67;;;16.10;99.90;;;;;;5064976;28;20206;-76
2023/09/28 04:13:22;;;;;;;3.90;3.47;;;16.10;99.90;;;;;;5068608;28;20220;-76
2023/09/28 04:15:51;;;;;;;4.13;3.75;;;16.10;99.90;;;;;;5063989;28;20267;-76
2023/09/28 04:18:18;;;;;;;4.03;3.72;;;16.10;99.90;;;;;;5068646;28;20221;-75
2023/09/28 04:20:45;;;;;;;3.85;3.55;;;16.00;99.90;;;;;;5067892;28;20229;-75
2023/09/28 04:23:12;;;;;;;4.25;3.95;;;16.00;99.90;;;;;;5069878;28;20195;-77
2023/09/28 04:25:39;;;;;;;4.18;3.85;;;16.00;99.90;;;;;;5070725;28;20237;-75
2023/09/28 04:28:06;;;;;;;4.53;4.15;;;16.00;99.90;;;;;;5068832;28;20248;-75
2023/09/28 04:30:36;;;;;;;4.40;4.00;;;16.00;99.90;;;;;;5069920;28;20908;-76
2023/09/28 04:33:04;;;;;;;4.32;3.92;;;15.90;99.90;;;;;;5068681;28;20209;-75
2023/09/28 04:35:31;;;;;;;3.45;3.15;;;15.90;99.90;;;;;;5070732;28;20643;-75
2023/09/28 04:37:59;;;;;;;4.63;4.15;;;15.90;99.90;;;;;;5065366;28;20222;-75
2023/09/28 04:40:25;;;;;;;3.70;3.45;;;15.90;99.90;;;;;;5065683;28;20246;-76
2023/09/28 04:42:54;;;;;;;4.68;3.85;;;15.90;99.90;;;;;;5066860;28;20716;-76
2023/09/28 04:45:22;;;;;;;4.53;4.13;;;15.90;99.90;;;;;;5061830;28;20740;-76
2023/09/28 04:47:49;;;;;;;3.47;3.22;;;15.90;99.90;;;;;;5066775;28;20199;-76
2023/09/28 04:50:17;;;;;;;4.40;4.00;;;16.00;99.90;;;;;;5067022;28;20242;-75
2023/09/28 04:52:44;;;;;;;5.10;4.35;;;16.00;99.90;;;;;;5065849;28;20209;-75
2023/09/28 04:55:11;;;;;;;4.35;4.05;;;16.10;99.90;;;;;;5069012;28;20296;-76
2023/09/28 04:57:39;;;;;;;4.40;4.00;;;16.10;99.90;;;;;;5064952;28;20245;-75
2023/09/28 05:00:10;;;;;;;4.35;4.05;;;16.10;99.90;;;;;;5066291;28;20230;-77
2023/09/28 05:02:37;;;;;;;5.68;3.75;;;16.10;99.90;;;;;;5063437;28;20233;-77
2023/09/28 05:05:06;;;;;;;4.07;3.65;;;16.20;99.90;;;;;;5064859;28;21079;-75
2023/09/28 05:07:34;;;;;;;4.60;4.15;;;16.20;99.90;;;;;;5067824;28;20224;-75
2023/09/28 05:10:02;;;;;;;4.38;4.07;;;16.30;99.90;;;;;;5065940;28;20201;-76
2023/09/28 05:12:29;;;;;;;4.03;3.70;;;16.30;99.90;;;;;;5061084;28;20202;-75
2023/09/28 05:14:57;;;;;;;4.93;4.10;;;16.30;99.90;;;;;;5062332;28;20268;-77
2023/09/28 05:17:24;;;;;;;4.63;4.22;;;16.30;99.90;;;;;;5062480;28;20261;-76
2023/09/28 05:19:51;;;;;;;3.97;3.67;;;16.30;99.90;;;;;;5060894;28;20616;-75
2023/09/28 05:22:18;;;;;;;4.43;4.03;;;16.30;99.90;;;;;;5063166;28;20684;-76
2023/09/28 05:24:47;;;;;;;4.13;3.83;;;16.30;99.90;;;;;;5060215;28;20245;-75
2023/09/28 05:27:14;;;;;;;4.70;4.30;;;16.30;99.90;;;;;;5065886;28;20281;-76
2023/09/28 05:29:41;;;;;;;3.92;3.63;;;16.30;99.90;;;;;;5062434;28;20206;-78
2023/09/28 05:32:08;;;;;;;4.05;3.75;;;16.40;99.90;;;;;;5061240;28;20287;-75
2023/09/28 05:34:36;;;;;;;5.10;3.83;;;16.40;99.90;;;;;;5068851;28;20218;-76
2023/09/28 05:37:03;;;;;;;5.07;3.88;;;16.50;99.90;;;;;;5064763;28;20208;-76
2023/09/28 05:39:30;;;;;;;4.90;4.03;;;16.50;99.90;;;;;;5062385;28;20225;-76
2023/09/28 05:41:58;;;;;;;4.55;4.18;;;16.40;99.90;;;;;;5063376;28;20672;-77
2023/09/28 05:44:25;;;;;;;4.55;4.20;;;16.40;99.90;;;;;;5063333;28;20279;-76
2023/09/28 05:46:53;;;;;;;4.72;4.32;;;16.50;99.90;;;;;;5062798;28;20202;-75
2023/09/28 05:49:20;;;;;;;4.28;3.85;;;16.60;99.90;;;;;;5062920;28;20195;-75
2023/09/28 05:51:47;;;;;;;4.10;3.80;;;16.60;99.90;;;;;;5062551;28;20202;-76
2023/09/28 05:54:14;;;;;;;4.00;3.67;;;16.70;99.90;;;;;;5069508;28;20249;-76
2023/09/28 05:56:41;;;;;;;4.45;3.78;;;16.80;99.90;;;;;;5088982;28;20205;-79
2023/09/28 05:59:09;;;;;;;3.97;3.67;;;16.80;99.90;;;;;;5072194;28;20754;-75
2023/09/28 06:01:37;;;;;;;4.22;3.83;;;16.90;99.90;;;;;;5065889;28;20206;-76
2023/09/28 06:04:05;;;;;;;4.75;4.10;;;16.90;99.90;;;;;;5076578;28;20206;-78
2023/09/28 06:06:32;;;;;;;4.50;4.00;;;17.00;99.90;;;;;;5090082;28;20225;-78
2023/09/28 06:09:00;;;;;;;4.97;4.47;;;17.40;99.90;;;;;;5091977;28;20237;-78
2023/09/28 06:11:27;;;;;;;4.50;4.20;;;18.00;99.90;;;;;;5093850;28;20221;-78
2023/09/28 06:13:54;;;;;;;3.80;3.50;;;18.50;99.90;;;;;;5068717;28;20329;-77
2023/09/28 06:16:25;;;;;;;4.05;3.75;;;19.00;99.90;;;;;;5071408;28;20289;-78
2023/09/28 06:18:52;;;;;;;4.15;3.85;;;19.30;99.90;;;;;;5069003;28;20214;-78
2023/09/28 06:21:19;;;;;;;4.68;4.28;;;19.60;99.90;;;;;;5066725;28;20194;-77
2023/09/28 06:23:46;;;;;;;4.82;4.43;;;19.90;99.90;;;;;;5069740;28;20218;-76
2023/09/28 06:26:13;;;;;;;5.80;4.60;;;20.00;99.90;;;;;;5069433;28;20206;-76
2023/09/28 06:28:41;;;;;;;7.03;4.35;;;20.10;99.90;;;;;;5069941;28;20255;-77
2023/09/28 06:31:08;;;;;;;5.15;4.65;;;20.30;99.90;;;;;;5071084;28;20199;-77
2023/09/28 06:33:37;;;;;;;4.82;4.43;;;20.50;99.90;;;;;;5069878;28;20232;-77
2023/09/28 06:36:05;;;;;;;6.30;4.35;;;20.80;99.90;;;;;;5071749;28;20207;-77
2023/09/28 06:38:33;;;;;;;5.10;4.70;;;20.80;99.90;;;;;;5065273;28;20814;-78
2023/09/28 06:40:59;;;;;;;5.20;4.68;;;21.00;99.90;;;;;;5067059;28;20249;-78
2023/09/28 06:43:26;;;;;;;5.90;4.60;;;21.20;99.90;;;;;;5071216;28;20276;-78
2023/09/28 06:45:53;;;;;;;5.22;4.68;;;21.40;99.90;;;;;;5066003;28;20202;-77
2023/09/28 06:48:22;;;;;;;5.47;4.95;;;21.50;99.90;;;;;;5079375;28;20277;-77
2023/09/28 06:50:50;;;;;;;5.40;4.55;;;21.60;99.90;;;;;;5083109;28;20204;-79
2023/09/28 06:53:17;;;;;;;5.25;4.75;;;21.70;99.90;;;;;;5083528;28;20232;-77
2023/09/28 06:55:45;;;;;;;4.60;4.20;;;22.00;99.90;;;;;;5074342;28;20650;-78
2023/09/28 06:58:14;;;;;;;4.28;3.88;;;22.10;99.90;;;;;;5068042;28;20252;-79
2023/09/28 07:00:41;;;;;;;6.25;4.28;;;22.00;99.90;;;;;;5068487;28;20213;-77
2023/09/28 07:03:09;;;;;;;6.07;4.60;;;22.00;99.90;;;;;;5062937;28;20206;-78
2023/09/28 07:05:36;;;;;;;4.80;4.32;;;21.80;99.90;;;;;;5065834;28;20222;-77
2023/09/28 07:08:06;;;;;;;4.43;4.03;;;21.20;99.90;;;;;;5069081;28;20191;-77
2023/09/28 07:10:33;;;;;;;6.55;4.30;;;20.80;99.90;;;;;;5073373;28;20198;-77
2023/09/28 07:13:02;;;;;;;5.45;4.85;;;20.30;99.90;;;;;;5067793;28;20237;-77
2023/09/28 07:15:29;;;;;;;5.90;4.40;;;20.00;99.90;;;;;;5072787;28;20264;-77
2023/09/28 07:17:57;;;;;;;5.28;4.78;;;19.80;99.90;;;;;;5070008;28;20242;-76
2023/09/28 07:20:25;;;;;;;5.30;4.22;;;19.80;99.90;;;;;;5073903;28;20214;-76
2023/09/28 07:22:52;;;;;;;4.90;4.43;;;20.00;99.90;;;;;;5069674;28;20198;-76
2023/09/28 07:25:20;;;;;;;5.97;4.45;;;20.30;99.90;;;;;;5074374;28;20240;-77
2023/09/28 07:27:49;;;;;;;5.18;4.60;;;20.80;99.90;;;;;;5074026;28;20256;-77
2023/09/28 07:30:18;;;;;;;5.68;4.40;;;21.40;99.90;;;;;;5073738;28;20236;-77
2023/09/28 07:32:46;;;;;;;5.88;5.25;;;21.70;99.90;;;;;;5074642;28;20253;-77
2023/09/28 07:35:13;;;;;;;5.50;4.90;;;21.90;99.90;;;;;;5077525;28;20245;-79
2023/09/28 07:37:42;;;;;;;5.70;4.68;;;22.30;99.90;;;;;;5073998;28;20210;-78
2023/09/28 07:40:12;;;;;;;5.97;4.75;;;22.60;99.90;;;;;;5071674;28;20199;-76
2023/09/28 07:42:41;;;;;;;6.20;4.65;;;22.80;99.90;;;;;;5071127;28;20206;-77
2023/09/28 07:45:09;;;;;;;5.65;4.80;;;23.00;99.90;;;;;;5066286;28;20233;-77
2023/09/28 07:47:36;;;;;;;7.43;4.60;;;23.10;99.90;;;;;;5070799;28;20237;-77
2023/09/28 07:50:03;;;;;;;4.63;4.00;;;23.30;99.90;;;;;;5074918;28;20202;-78
2023/09/28 07:52:31;;;;;;;5.60;3.55;;;23.50;99.90;;;;;;5073838;28;20210;-77
2023/09/28 07:54:58;;;;;;;4.97;4.22;;;23.70;99.90;;;;;;5074261;28;20541;-77
2023/09/28 07:57:25;;;;;;;7.95;4.38;;;23.30;99.90;;;;;;5080231;28;20195;-82
2023/09/28 08:00:06;;;;;;;8.20;4.57;;;22.60;99.90;;;;;;5081916;28;20264;-77
2023/09/28 08:02:55;;;;;;;4.57;4.18;;;22.30;99.90;;;;;;5068839;28;20256;-77
2023/09/28 08:05:23;;;;;;;5.63;4.25;;;22.40;99.90;;;;;;5070269;28;20226;-77
2023/09/28 08:07:51;;;;;;;4.95;4.43;;;22.70;99.90;;;;;;5067055;28;20203;-77
2023/09/28 08:10:18;;;;;;;5.03;4.45;;;22.90;99.90;;;;;;5072342;28;20213;-77
2023/09/28 08:12:46;;;;;;;5.13;4.47;;;22.90;99.90;;;;;;5067767;28;20227;-78
2023/09/28 08:15:15;;;;;;;4.30;3.80;;;22.70;99.90;;;;;;5070936;28;20250;-77
2023/09/28 08:17:45;;;;;;;6.47;4.10;;;22.60;99.90;;;;;;5075381;28;20240;-78
2023/09/28 08:20:14;;;;;;;7.57;4.53;;;22.80;99.90;;;;;;5074142;28;20203;-79
2023/09/28 08:22:41;;;;;;;4.60;4.20;;;22.90;99.90;;;;;;5070640;28;20202;-77
2023/09/28 08:25:09;;;;;;;7.63;4.38;;;23.10;99.90;;;;;;5068466;28;20570;-78
2023/09/28 08:27:36;;;;;;;5.75;4.68;;;22.90;99.90;;;;;;5072069;28;20259;-79
2023/09/28 08:30:03;;;;;;;4.97;4.10;;;23.00;99.90;;;;;;5075761;28;20195;-77
2023/09/28 08:32:32;;;;;;;4.10;3.70;;;23.10;99.90;;;;;;5071863;28;20201;-78
2023/09/28 08:34:59;;;;;;;6.13;4.13;;;23.20;99.90;;;;;;5062660;28;20276;-77
2023/09/28 08:37:27;;;;;;;5.35;4.20;;;23.40;99.90;;;;;;5067989;28;20267;-79
2023/09/28 08:39:57;;;;;;;4.88;4.38;;;23.70;99.90;;;;;;5074069;28;20246;-78
2023/09/28 08:42:26;;;;;;;4.45;4.05;;;23.80;99.90;;;;;;5068804;28;20202;-77
2023/09/28 08:45:00;;;;;;;4.38;3.97;;;24.00;99.90;;;;;;5070976;28;20236;-76
2023/09/28 08:47:32;;;;;;;5.53;4.28;;;24.20;99.90;;;;;;5069092;28;20206;-81
2023/09/28 08:50:00;;;;;;;5.47;4.10;;;24.40;99.90;;;;;;5069689;28;20206;-78
2023/09/28 08:52:29;;;;;;;4.68;4.20;;;24.60;99.90;;;;;;5069322;28;20232;-78
2023/09/28 08:54:58;;;;;;;7.43;4.60;;;24.60;99.90;;;;;;5071896;28;20254;-77
2023/09/28 08:57:27;;;;;;;4.45;4.05;;;24.50;99.90;;;;;;5069360;28;20206;-77
2023/09/28 08:59:55;;;;;;;5.05;3.78;;;24.70;99.90;;;;;;5073564;28;20222;-77
2023/09/28 09:02:22;;;;;;;5.45;4.28;;;24.90;99.90;;;;;;5068878;28;20207;-77
2023/09/28 09:04:52;;;;;;;4.60;4.05;;;25.10;99.90;;;;;;5066674;28;20225;-79
2023/09/28 09:07:21;;;;;;;4.63;4.22;;;25.30;99.90;;;;;;5066913;28;20213;-77
2023/09/28 09:09:50;;;;;;;4.30;3.92;;;25.40;99.90;;;;;;5071976;28;20205;-75
2023/09/28 09:12:18;;;;;;;5.43;4.07;;;25.20;99.90;;;;;;5069051;28;20249;-76
2023/09/28 09:14:45;;;;;;;8.23;4.15;;;25.30;99.90;;;;;;5063874;28;20222;-77
2023/09/28 09:17:12;;;;;;;6.32;4.22;;;25.40;99.90;;;;;;5072258;28;20338;-76
2023/09/28 09:19:40;;;;;;;5.93;4.10;;;25.40;99.90;;;;;;5068210;28;20222;-76
2023/09/28 09:22:09;;;;;;;5.20;3.83;;;25.40;99.90;;;;;;5067969;28;20203;-75
2023/09/28 09:24:53;;;;;;;6.97;4.03;;;25.20;99.90;;;;;;5070169;28;20324;-76
2023/09/28 09:27:26;;;;;;;4.50;4.10;;;25.30;99.90;;;;;;5073667;28;20202;-75
2023/09/28 09:29:57;;;;;;;5.95;4.50;;;25.20;99.90;;;;;;5064876;28;20190;-77
2023/09/28 09:32:25;;;;;;;6.60;4.30;;;25.30;99.90;;;;;;5070482;28;20225;-77
2023/09/28 09:34:53;;;;;;;4.93;4.00;;;25.40;99.90;;;;;;5075755;28;20282;-76
2023/09/28 09:37:21;;;;;;;5.88;4.32;;;25.60;99.90;;;;;;5066501;28;20289;-79
2023/09/28 09:39:48;;;;;;;4.70;3.60;;;25.50;99.90;;;;;;5063739;28;20644;-77
2023/09/28 09:42:26;;;;;;;4.35;4.05;;;25.30;99.90;;;;;;5063498;28;20206;-75
2023/09/28 09:44:54;;;;;;;5.00;4.15;;;25.20;99.90;;;;;;5089371;28;20227;-80
2023/09/28 09:47:21;;;;;;;4.60;3.88;;;25.00;99.90;;;;;;5088116;28;20279;-78
2023/09/28 09:49:49;;;;;;;4.78;3.80;;;25.20;99.90;;;;;;5085153;28;20225;-80
2023/09/28 09:52:19;;;;;;;4.78;4.35;;;25.50;99.90;;;;;;5066901;28;20841;-78
2023/09/28 09:54:48;;;;;;;8.15;4.35;;;25.40;99.90;;;;;;5062240;28;20218;-77
2023/09/28 09:57:17;;;;;;;3.95;3.65;;;25.40;99.90;;;;;;5065702;28;20301;-76
2023/09/28 09:59:47;;;;;;;4.28;3.70;;;25.50;99.90;;;;;;5077508;28;20207;-79
2023/09/28 10:02:23;;;;;;;3.78;3.30;;;25.70;99.90;;;;;;5068150;28;20232;-76
2023/09/28 10:04:53;;;;;;;5.78;3.90;;;25.90;99.90;;;;;;5058029;28;20288;-79
2023/09/28 10:07:26;;;;;;;5.88;4.10;;;26.10;99.90;;;;;;5064715;28;20224;-79
2023/09/28 10:09:55;;;;;;;4.47;4.07;;;26.20;99.90;;;;;;5065007;28;20215;-81
2023/09/28 10:12:24;;;;;;;5.80;4.05;;;26.30;99.90;;;;;;5064789;28;20198;-78
2023/09/28 10:14:52;;;;;;;4.07;3.60;;;26.20;99.90;;;;;;5060529;28;20279;-79
2023/09/28 10:17:20;;;;;;;5.18;4.25;;;26.00;99.90;;;;;;5058195;28;20654;-78
2023/09/28 10:19:50;;;;;;;4.03;3.50;;;25.90;99.90;;;;;;5061246;28;20299;-77
2023/09/28 10:22:17;;;;;;;4.30;3.90;;;26.00;99.90;;;;;;5062864;28;20209;-77
2023/09/28 10:24:44;;;;;;;5.53;3.92;;;26.00;99.90;;;;;;5061940;28;20226;-76
2023/09/28 10:27:13;;;;;;;6.18;4.75;;;26.20;99.90;;;;;;5063901;28;20585;-79
2023/09/28 10:29:40;;;;;;;6.00;4.40;;;26.10;99.90;;;;;;5063447;28;20205;-78
2023/09/28 10:32:15;;;;;;;7.45;4.60;;;25.80;99.90;;;;;;5062313;28;20346;-76
2023/09/28 10:34:45;;;;;;;4.30;3.90;;;25.50;99.90;;;;;;5055024;28;20218;-80
2023/09/28 10:37:20;;;;;;;5.22;3.80;;;25.40;99.90;;;;;;5061281;28;20206;-77
2023/09/28 10:39:52;;;;;;;6.32;4.57;;;25.70;99.90;;;;;;5062211;28;20220;-78
2023/09/28 10:42:21;;;;;;;4.35;3.95;;;26.00;99.90;;;;;;5060314;28;20230;-76
2023/09/28 10:44:50;;;;;;;6.50;3.90;;;26.20;99.90;;;;;;5060225;28;20275;-78
2023/09/28 10:47:17;;;;;;;4.00;3.60;;;26.50;99.90;;;;;;5062075;28;20210;-79
2023/09/28 10:49:45;;;;;;;5.60;3.92;;;26.70;99.90;;;;;;5060070;28;20198;-78
2023/09/28 10:52:12;;;;;;;4.40;4.00;;;26.80;99.90;;;;;;5059216;28;20198;-77
2023/09/28 10:54:39;;;;;;;5.03;3.88;;;26.80;99.90;;;;;;5056919;28;20222;-78
2023/09/28 10:57:07;;;;;;;5.43;3.90;;;26.70;99.90;;;;;;5059085;28;20202;-78
2023/09/28 10:59:37;;;;;;;4.03;3.70;;;26.70;99.90;;;;;;5062602;28;20647;-79
2023/09/28 11:02:05;;;;;;;7.93;4.63;;;26.50;99.90;;;;;;5067678;28;20190;-79
2023/09/28 11:04:32;;;;;;;5.93;4.13;;;26.40;99.90;;;;;;5060764;28;20252;-80
2023/09/28 11:07:01;;;;;;;4.13;3.72;;;26.50;99.90;;;;;;5065023;28;20740;-78
2023/09/28 11:09:31;;;;;;;3.83;3.53;;;26.70;99.90;;;;;;5062980;28;20244;-79
2023/09/28 11:11:58;;;;;;;4.55;3.63;;;26.80;99.90;;;;;;5055812;28;20285;-76
2023/09/28 11:14:26;;;;;;;6.05;4.15;;;26.60;99.90;;;;;;5059199;28;21008;-76
2023/09/28 11:16:54;;;;;;;5.32;3.90;;;26.70;99.90;;;;;;5063301;28;20756;-76
2023/09/28 11:19:22;;;;;;;3.97;3.50;;;26.60;99.90;;;;;;5056390;28;20687;-76
2023/09/28 11:21:49;;;;;;;4.38;3.95;;;26.60;99.90;;;;;;5060375;28;20199;-75
2023/09/28 11:24:16;;;;;;;4.35;3.47;;;26.60;99.90;;;;;;5060446;28;20236;-76
2023/09/28 11:26:43;;;;;;;3.97;3.60;;;26.70;99.90;;;;;;5060375;28;20262;-75
2023/09/28 11:29:10;;;;;;;3.97;3.55;;;26.90;99.90;;;;;;5060644;28;20551;-76
2023/09/28 11:31:48;;;;;;;4.45;3.80;;;26.90;99.90;;;;;;5059345;28;20198;-76
2023/09/28 11:34:28;;;;;;;6.38;3.90;;;27.00;99.90;;;;;;5060308;28;20218;-77
2023/09/28 11:36:56;;;;;;;6.57;4.30;;;27.00;99.90;;;;;;5060191;28;20233;-81
2023/09/28 11:39:25;;;;;;;4.55;3.80;;;26.80;99.90;;;;;;5060741;28;20308;-74
2023/09/28 11:41:59;;;;;;;5.53;3.88;;;26.70;99.90;;;;;;5059036;28;20267;-73
2023/09/28 11:44:27;;;;;;;5.63;3.72;;;26.60;99.90;;;;;;5059196;28;20271;-76
2023/09/28 11:46:55;;;;;;;5.07;4.05;;;26.40;99.90;;;;;;5061482;28;20288;-75
2023/09/28 11:49:24;;;;;;;3.90;3.50;;;26.20;99.90;;;;;;5061326;28;20761;-74
2023/09/28 11:51:53;;;;;;;3.42;3.13;;;26.20;99.90;;;;;;5062811;28;20194;-74
2023/09/28 11:54:21;;;;;;;4.50;3.85;;;26.50;99.90;;;;;;5056990;28;20919;-74
2023/09/28 11:56:49;;;;;;;5.15;3.63;;;26.90;99.90;;;;;;5064041;28;20237;-75
2023/09/28 11:59:16;;;;;;;4.03;3.63;;;26.90;99.90;;;;;;5073421;28;20248;-78
2023/09/28 12:01:43;;;;;;;3.95;3.65;;;26.80;99.90;;;;;;5084947;28;20187;-74
2023/09/28 12:04:14;;;;;;;4.95;3.78;;;26.60;99.90;;;;;;5062619;28;20218;-75
2023/09/28 12:06:43;;;;;;;4.20;3.83;;;26.60;99.90;;;;;;5061583;28;20281;-74
2023/09/28 12:09:10;;;;;;;3.92;3.58;;;26.50;99.90;;;;;;5061089;28;20446;-77
2023/09/28 12:11:38;;;;;;;4.43;3.80;;;26.40;99.90;;;;;;5062125;28;20688;-76
2023/09/28 12:14:05;;;;;;;5.22;3.85;;;26.50;99.90;;;;;;5060038;28;20851;-75
2023/09/28 12:16:32;;;;;;;4.72;4.18;;;26.60;99.90;;;;;;5062158;28;20264;-74
2023/09/28 12:18:59;;;;;;;4.60;4.05;;;26.50;99.90;;;;;;5061158;28;20202;-74
2023/09/28 12:21:27;;;;;;;7.18;4.05;;;26.30;99.90;;;;;;5060784;28;20210;-74
2023/09/28 12:23:56;;;;;;;3.75;3.45;;;26.10;99.90;;;;;;5061635;28;20233;-73
2023/09/28 12:26:22;;;;;;;5.25;3.83;;;26.30;99.90;;;;;;5059775;28;20257;-74
2023/09/28 12:28:49;;;;;;;5.63;3.78;;;26.40;99.90;;;;;;5062895;28;20209;-74
2023/09/28 12:31:17;;;;;;;4.35;3.95;;;26.40;99.90;;;;;;5062413;28;20211;-74
2023/09/28 12:33:45;;;;;;;3.53;3.22;;;26.50;99.90;;;;;;5060419;28;20915;-76
2023/09/28 12:36:12;;;;;;;5.65;3.53;;;26.60;99.90;;;;;;5060385;28;20799;-74
2023/09/28 12:38:39;;;;;;;3.85;3.47;;;26.70;99.90;;;;;;5060828;28;20248;-75
2023/09/28 12:41:09;;;;;;;4.47;4.07;;;26.70;99.90;;;;;;5058357;28;20244;-75
2023/09/28 12:43:36;;;;;;;4.88;3.78;;;26.50;99.90;;;;;;5056336;28;20285;-75
2023/09/28 12:46:03;;;;;;;5.38;4.20;;;26.30;99.90;;;;;;5058862;28;20206;-76
2023/09/28 12:48:30;;;;;;;4.60;4.20;;;26.20;99.90;;;;;;5059544;28;20298;-76
2023/09/28 12:50:57;;;;;;;3.85;3.30;;;26.10;99.90;;;;;;5061706;28;20198;-74